Appleton, Wisconsin
Current Conditions -  °F | °C
As of 9:45 AM on Friday 28 Nov 2014 (Local Time) from KATW Reporting Station
Light Snow Light Snow  
Wind Chill:   Ceiling: 5000
Heat Index: 16°   Visibility: 5mi
Dew Point: 10°   Wind: 9mph
Humidity: 79%   Direction: 140°SE
Pressure: 30.15"   Gusts: NA
Location:  44.26°N, 88.42°W
Report Text: KATW 281545Z 14008KT 5SM -SN OVC050 M09/M12 A3015
Loading
Personal Weather Stations






























Interactive Weather Map New forecast layout! Learn more

10-Day Weather Forecast

Advertisements
Track Severe Weather on mobile